sensor_id;sensor_type;location;lat;lon;timestamp;pressure;altitude;pressure_sealevel;temperature;humidity
55066;BME280;40964;42.114;24.220;2023-03-20T00:01:20;98245.63;;;6.22;74.42
55066;BME280;40964;42.114;24.220;2023-03-20T00:03:47;98246.69;;;6.13;74.26
55066;BME280;40964;42.114;24.220;2023-03-20T00:06:16;98245.81;;;5.97;74.20
55066;BME280;40964;42.114;24.220;2023-03-20T00:08:43;98236.41;;;5.88;74.92
55066;BME280;40964;42.114;24.220;2023-03-20T00:13:52;98234.84;;;5.79;75.22
55066;BME280;40964;42.114;24.220;2023-03-20T00:16:29;98232.22;;;5.79;75.52
55066;BME280;40964;42.114;24.220;2023-03-20T00:18:56;98227.25;;;5.69;76.52
55066;BME280;40964;42.114;24.220;2023-03-20T00:21:22;98227.94;;;5.63;76.52
55066;BME280;40964;42.114;24.220;2023-03-20T00:23:47;98231.72;;;5.61;76.98
55066;BME280;40964;42.114;24.220;2023-03-20T00:26:15;98225.97;;;5.65;76.76
55066;BME280;40964;42.114;24.220;2023-03-20T00:28:46;98225.97;;;5.65;76.33
55066;BME280;40964;42.114;24.220;2023-03-20T00:31:31;98228.25;;;5.68;75.96
55066;BME280;40964;42.114;24.220;2023-03-20T00:33:59;98234.59;;;5.66;76.06
55066;BME280;40964;42.114;24.220;2023-03-20T00:36:26;98227.94;;;5.63;76.37
55066;BME280;40964;42.114;24.220;2023-03-20T00:38:51;98221.72;;;5.64;76.13
55066;BME280;40964;42.114;24.220;2023-03-20T00:47:24;98227.53;;;5.75;75.91
55066;BME280;40964;42.114;24.220;2023-03-20T00:49:50;98209.91;;;5.77;76.39
55066;BME280;40964;42.114;24.220;2023-03-20T00:52:18;98221.25;;;5.84;75.63
55066;BME280;40964;42.114;24.220;2023-03-20T00:54:44;98198.81;;;5.75;75.97
55066;BME280;40964;42.114;24.220;2023-03-20T00:57:13;98211.91;;;5.89;75.68
55066;BME280;40964;42.114;24.220;2023-03-20T00:59:51;98210.13;;;5.90;75.81
55066;BME280;40964;42.114;24.220;2023-03-20T01:02:20;98201.22;;;5.84;75.78
55066;BME280;40964;42.114;24.220;2023-03-20T01:04:46;98208.84;;;5.86;75.89
55066;BME280;40964;42.114;24.220;2023-03-20T01:07:14;98209.31;;;5.89;76.28
55066;BME280;40964;42.114;24.220;2023-03-20T01:09:40;98190.41;;;5.87;76.13
55066;BME280;40964;42.114;24.220;2023-03-20T01:12:06;98203.44;;;5.95;75.83
55066;BME280;40964;42.114;24.220;2023-03-20T01:14:34;98195.59;;;5.95;76.24
55066;BME280;40964;42.114;24.220;2023-03-20T01:17:00;98188.59;;;5.88;76.97
55066;BME280;40964;42.114;24.220;2023-03-20T01:19:26;98184.00;;;5.90;77.33
55066;BME280;40964;42.114;24.220;2023-03-20T01:21:51;98183.69;;;5.93;77.56
55066;BME280;40964;42.114;24.220;2023-03-20T01:24:17;98189.03;;;5.77;76.73
55066;BME280;40964;42.114;24.220;2023-03-20T01:26:44;98189.28;;;5.67;77.54
55066;BME280;40964;42.114;24.220;2023-03-20T01:29:22;98181.97;;;5.62;77.85
55066;BME280;40964;42.114;24.220;2023-03-20T01:31:48;98177.28;;;5.58;77.59
55066;BME280;40964;42.114;24.220;2023-03-20T01:34:14;98185.97;;;5.50;76.99
55066;BME280;40964;42.114;24.220;2023-03-20T01:36:54;98181.84;;;5.33;77.35
55066;BME280;40964;42.114;24.220;2023-03-20T01:39:21;98171.44;;;5.33;76.92
55066;BME280;40964;42.114;24.220;2023-03-20T01:41:50;98175.88;;;5.24;76.68
55066;BME280;40964;42.114;24.220;2023-03-20T01:44:22;98175.16;;;5.07;77.54
55066;BME280;40964;42.114;24.220;2023-03-20T01:46:50;98171.97;;;4.97;78.15
55066;BME280;40964;42.114;24.220;2023-03-20T01:51:45;98167.84;;;4.72;78.60
55066;BME280;40964;42.114;24.220;2023-03-20T01:54:14;98172.75;;;4.67;79.99
55066;BME280;40964;42.114;24.220;2023-03-20T01:56:55;98172.47;;;4.62;79.26
55066;BME280;40964;42.114;24.220;2023-03-20T01:59:27;98169.25;;;4.51;79.83
55066;BME280;40964;42.114;24.220;2023-03-20T02:01:53;98169.75;;;4.47;80.41
55066;BME280;40964;42.114;24.220;2023-03-20T02:04:24;98167.91;;;4.55;81.26
55066;BME280;40964;42.114;24.220;2023-03-20T02:06:50;98161.06;;;4.63;80.99
55066;BME280;40964;42.114;24.220;2023-03-20T02:09:16;98156.97;;;4.68;80.89
55066;BME280;40964;42.114;24.220;2023-03-20T02:11:42;98155.19;;;4.69;80.46
55066;BME280;40964;42.114;24.220;2023-03-20T02:14:10;98150.13;;;4.67;80.98
55066;BME280;40964;42.114;24.220;2023-03-20T02:16:36;98161.66;;;4.73;80.54
55066;BME280;40964;42.114;24.220;2023-03-20T02:19:03;98148.00;;;4.71;81.04
55066;BME280;40964;42.114;24.220;2023-03-20T02:24:42;98151.38;;;4.79;81.47
55066;BME280;40964;42.114;24.220;2023-03-20T02:38:27;98150.13;;;4.67;81.55
55066;BME280;40964;42.114;24.220;2023-03-20T02:41:06;98137.09;;;4.67;81.86
55066;BME280;40964;42.114;24.220;2023-03-20T02:47:01;98144.06;;;4.75;81.50
55066;BME280;40964;42.114;24.220;2023-03-20T02:49:52;98140.53;;;4.68;80.47
55066;BME280;40964;42.114;24.220;2023-03-20T02:55:13;98141.66;;;4.65;81.53
55066;BME280;40964;42.114;24.220;2023-03-20T02:57:49;98139.25;;;4.64;80.56
55066;BME280;40964;42.114;24.220;2023-03-20T03:00:35;98152.63;;;4.61;79.62
55066;BME280;40964;42.114;24.220;2023-03-20T03:03:10;98154.94;;;4.47;80.33
55066;BME280;40964;42.114;24.220;2023-03-20T03:05:43;98153.06;;;4.25;80.51
55066;BME280;40964;42.114;24.220;2023-03-20T03:08:12;98155.69;;;4.09;81.27
55066;BME280;40964;42.114;24.220;2023-03-20T03:10:48;98150.97;;;4.04;82.09
55066;BME280;40964;42.114;24.220;2023-03-20T03:13:19;98139.44;;;4.07;82.19
55066;BME280;40964;42.114;24.220;2023-03-20T03:15:48;98129.22;;;4.05;81.58
55066;BME280;40964;42.114;24.220;2023-03-20T03:18:18;98146.44;;;4.06;82.31
55066;BME280;40964;42.114;24.220;2023-03-20T03:20:47;98135.53;;;4.11;84.01
55066;BME280;40964;42.114;24.220;2023-03-20T03:23:31;98141.19;;;4.22;83.71
55066;BME280;40964;42.114;24.220;2023-03-20T03:25:59;98141.03;;;4.24;82.87
55066;BME280;40964;42.114;24.220;2023-03-20T03:28:42;98142.66;;;4.17;82.29
55066;BME280;40964;42.114;24.220;2023-03-20T03:31:11;98153.94;;;4.01;81.64
55066;BME280;40964;42.114;24.220;2023-03-20T03:33:43;98149.88;;;3.90;82.39
55066;BME280;40964;42.114;24.220;2023-03-20T03:47:15;98147.09;;;4.00;85.31
55066;BME280;40964;42.114;24.220;2023-03-20T03:49:48;98145.63;;;4.06;85.00
55066;BME280;40964;42.114;24.220;2023-03-20T03:52:19;98143.00;;;4.14;85.17
55066;BME280;40964;42.114;24.220;2023-03-20T03:54:58;98133.88;;;4.18;84.19
55066;BME280;40964;42.114;24.220;2023-03-20T03:57:39;98127.88;;;4.17;84.14
55066;BME280;40964;42.114;24.220;2023-03-20T04:00:06;98138.09;;;4.19;83.63
55066;BME280;40964;42.114;24.220;2023-03-20T04:02:33;98126.41;;;4.23;84.18
55066;BME280;40964;42.114;24.220;2023-03-20T04:05:00;98131.44;;;4.24;83.71
55066;BME280;40964;42.114;24.220;2023-03-20T04:07:28;98122.13;;;4.22;84.21
55066;BME280;40964;42.114;24.220;2023-03-20T04:09:54;98116.94;;;4.22;84.33
55066;BME280;40964;42.114;24.220;2023-03-20T04:12:39;98116.78;;;4.23;84.02
55066;BME280;40964;42.114;24.220;2023-03-20T04:15:05;98112.84;;;4.27;83.36
55066;BME280;40964;42.114;24.220;2023-03-20T04:17:31;98121.66;;;4.26;83.07
55066;BME280;40964;42.114;24.220;2023-03-20T04:19:57;98114.19;;;4.23;82.32
55066;BME280;40964;42.114;24.220;2023-03-20T04:22:22;98117.63;;;4.16;82.50
55066;BME280;40964;42.114;24.220;2023-03-20T04:24:48;98125.28;;;4.09;82.37
55066;BME280;40964;42.114;24.220;2023-03-20T04:27:13;98126.59;;;4.05;82.55
55066;BME280;40964;42.114;24.220;2023-03-20T04:29:39;98101.09;;;3.84;82.89
55066;BME280;40964;42.114;24.220;2023-03-20T04:32:05;98142.38;;;4.04;82.69
55066;BME280;40964;42.114;24.220;2023-03-20T04:34:30;98133.44;;;4.06;83.53
55066;BME280;40964;42.114;24.220;2023-03-20T04:36:56;98129.53;;;4.02;82.57
55066;BME280;40964;42.114;24.220;2023-03-20T04:39:21;98135.88;;;4.08;83.62
55066;BME280;40964;42.114;24.220;2023-03-20T04:41:47;98137.63;;;4.23;83.21
55066;BME280;40964;42.114;24.220;2023-03-20T04:44:12;98128.44;;;4.36;83.24
55066;BME280;40964;42.114;24.220;2023-03-20T04:46:38;98126.28;;;4.47;82.60
55066;BME280;40964;42.114;24.220;2023-03-20T04:49:03;98111.59;;;4.54;83.06
55066;BME280;40964;42.114;24.220;2023-03-20T04:51:29;98105.69;;;4.69;83.24
55066;BME280;40964;42.114;24.220;2023-03-20T04:53:54;98125.91;;;4.90;82.52
55066;BME280;40964;42.114;24.220;2023-03-20T04:56:19;98119.03;;;4.97;82.47
55066;BME280;40964;42.114;24.220;2023-03-20T04:58:45;98108.94;;;4.94;81.81
55066;BME280;40964;42.114;24.220;2023-03-20T05:01:10;98119.44;;;5.08;82.01
55066;BME280;40964;42.114;24.220;2023-03-20T05:03:37;98119.00;;;5.05;81.18
55066;BME280;40964;42.114;24.220;2023-03-20T05:06:03;98120.00;;;5.19;81.19
55066;BME280;40964;42.114;24.220;2023-03-20T05:08:29;98111.97;;;5.28;80.76
55066;BME280;40964;42.114;24.220;2023-03-20T05:10:55;98120.53;;;5.37;80.01
55066;BME280;40964;42.114;24.220;2023-03-20T05:13:21;98132.25;;;5.41;80.68
55066;BME280;40964;42.114;24.220;2023-03-20T05:15:46;98126.50;;;5.46;80.26
55066;BME280;40964;42.114;24.220;2023-03-20T05:18:12;98137.69;;;5.54;80.38
55066;BME280;40964;42.114;24.220;2023-03-20T05:20:38;98137.25;;;5.65;79.74
55066;BME280;40964;42.114;24.220;2023-03-20T05:23:03;98138.28;;;5.79;78.88
55066;BME280;40964;42.114;24.220;2023-03-20T05:25:28;98147.13;;;5.93;78.35
55066;BME280;40964;42.114;24.220;2023-03-20T05:27:54;98145.72;;;6.05;77.88
55066;BME280;40964;42.114;24.220;2023-03-20T05:30:20;98127.91;;;6.09;76.96
55066;BME280;40964;42.114;24.220;2023-03-20T05:32:48;98129.06;;;6.06;78.94
55066;BME280;40964;42.114;24.220;2023-03-20T05:35:14;98147.34;;;6.06;80.78
55066;BME280;40964;42.114;24.220;2023-03-20T05:37:40;98138.63;;;6.14;81.20
55066;BME280;40964;42.114;24.220;2023-03-20T05:40:06;98140.69;;;6.18;80.06
55066;BME280;40964;42.114;24.220;2023-03-20T05:42:32;98142.50;;;6.33;80.20
55066;BME280;40964;42.114;24.220;2023-03-20T05:44:58;98134.38;;;6.42;79.59
55066;BME280;40964;42.114;24.220;2023-03-20T05:47:23;98137.34;;;6.54;78.88
55066;BME280;40964;42.114;24.220;2023-03-20T05:49:49;98132.84;;;6.48;78.35
55066;BME280;40964;42.114;24.220;2023-03-20T05:52:14;98139.25;;;6.45;77.65
55066;BME280;40964;42.114;24.220;2023-03-20T05:54:40;98132.84;;;6.48;76.87
55066;BME280;40964;42.114;24.220;2023-03-20T05:57:05;98140.22;;;6.59;76.59
55066;BME280;40964;42.114;24.220;2023-03-20T05:59:31;98132.81;;;6.77;76.57
55066;BME280;40964;42.114;24.220;2023-03-20T06:01:56;98133.63;;;6.99;76.88
55066;BME280;40964;42.114;24.220;2023-03-20T06:04:22;98128.25;;;7.22;76.65
55066;BME280;40964;42.114;24.220;2023-03-20T06:06:47;98126.19;;;7.39;76.24
55066;BME280;40964;42.114;24.220;2023-03-20T06:09:12;98117.66;;;7.52;76.07
55066;BME280;40964;42.114;24.220;2023-03-20T06:11:38;98125.66;;;7.72;75.46
55066;BME280;40964;42.114;24.220;2023-03-20T06:14:03;98134.47;;;7.92;74.36
55066;BME280;40964;42.114;24.220;2023-03-20T06:16:29;98128.25;;;7.93;74.55
55066;BME280;40964;42.114;24.220;2023-03-20T06:18:54;98135.50;;;7.97;74.18
55066;BME280;40964;42.114;24.220;2023-03-20T06:21:19;98127.66;;;7.97;75.33
55066;BME280;40964;42.114;24.220;2023-03-20T06:23:45;98133.34;;;8.01;74.54
55066;BME280;40964;42.114;24.220;2023-03-20T06:26:10;98132.09;;;7.97;74.06
55066;BME280;40964;42.114;24.220;2023-03-20T06:28:36;98131.06;;;7.98;74.92
55066;BME280;40964;42.114;24.220;2023-03-20T06:31:02;98131.59;;;8.15;74.31
55066;BME280;40964;42.114;24.220;2023-03-20T06:33:27;98124.69;;;8.07;73.98
55066;BME280;40964;42.114;24.220;2023-03-20T06:35:53;98126.63;;;7.92;72.12
55066;BME280;40964;42.114;24.220;2023-03-20T06:38:18;98124.84;;;7.99;73.19
55066;BME280;40964;42.114;24.220;2023-03-20T06:40:43;98132.66;;;7.92;72.74
55066;BME280;40964;42.114;24.220;2023-03-20T06:43:09;98130.19;;;8.12;72.98
55066;BME280;40964;42.114;24.220;2023-03-20T06:45:37;98130.88;;;8.28;71.35
55066;BME280;40964;42.114;24.220;2023-03-20T06:48:06;98128.22;;;8.21;71.58
55066;BME280;40964;42.114;24.220;2023-03-20T06:50:31;98114.56;;;8.32;71.32
55066;BME280;40964;42.114;24.220;2023-03-20T06:52:57;98135.47;;;8.25;70.83
55066;BME280;40964;42.114;24.220;2023-03-20T06:55:22;98133.03;;;8.45;69.51
55066;BME280;40964;42.114;24.220;2023-03-20T06:57:47;98136.81;;;8.43;70.27
55066;BME280;40964;42.114;24.220;2023-03-20T07:00:13;98132.25;;;8.58;70.11
55066;BME280;40964;42.114;24.220;2023-03-20T07:02:39;98133.47;;;8.62;69.72
55066;BME280;40964;42.114;24.220;2023-03-20T07:05:05;98139.00;;;8.80;69.96
55066;BME280;40964;42.114;24.220;2023-03-20T07:07:31;98133.03;;;9.00;69.04
55066;BME280;40964;42.114;24.220;2023-03-20T07:09:56;98133.44;;;9.03;67.51
55066;BME280;40964;42.114;24.220;2023-03-20T07:12:22;98125.72;;;8.89;67.60
55066;BME280;40964;42.114;24.220;2023-03-20T07:14:52;98130.00;;;9.03;69.53
55066;BME280;40964;42.114;24.220;2023-03-20T07:17:18;98132.44;;;9.24;67.91
55066;BME280;40964;42.114;24.220;2023-03-20T07:22:33;98138.72;;;9.30;67.83
55066;BME280;40964;42.114;24.220;2023-03-20T07:24:58;98118.34;;;9.32;67.47
55066;BME280;40964;42.114;24.220;2023-03-20T07:27:24;98137.94;;;9.49;66.79
55066;BME280;40964;42.114;24.220;2023-03-20T07:29:50;98122.81;;;9.71;65.63
55066;BME280;40964;42.114;24.220;2023-03-20T07:32:16;98123.81;;;9.90;67.85
55066;BME280;40964;42.114;24.220;2023-03-20T07:34:42;98109.66;;;9.98;66.83
55066;BME280;40964;42.114;24.220;2023-03-20T07:37:08;98109.63;;;10.17;63.90
55066;BME280;40964;42.114;24.220;2023-03-20T07:39:34;98104.94;;;10.33;63.87
55066;BME280;40964;42.114;24.220;2023-03-20T07:42:00;98097.03;;;10.46;62.67
55066;BME280;40964;42.114;24.220;2023-03-20T07:44:25;98110.69;;;10.68;63.02
55066;BME280;40964;42.114;24.220;2023-03-20T07:46:51;98114.13;;;10.68;62.34
55066;BME280;40964;42.114;24.220;2023-03-20T07:49:16;98112.84;;;10.84;62.92
55066;BME280;40964;42.114;24.220;2023-03-20T07:51:43;98103.47;;;10.95;62.11
55066;BME280;40964;42.114;24.220;2023-03-20T07:54:09;98117.16;;;11.10;61.98
55066;BME280;40964;42.114;24.220;2023-03-20T07:56:35;98112.41;;;11.25;61.29
55066;BME280;40964;42.114;24.220;2023-03-20T07:59:00;98111.56;;;11.56;61.85
55066;BME280;40964;42.114;24.220;2023-03-20T08:01:26;98104.31;;;11.77;62.40
55066;BME280;40964;42.114;24.220;2023-03-20T08:03:51;98107.16;;;11.82;61.29
55066;BME280;40964;42.114;24.220;2023-03-20T08:06:17;98115.88;;;12.01;59.83
55066;BME280;40964;42.114;24.220;2023-03-20T08:08:42;98112.13;;;12.15;60.17
55066;BME280;40964;42.114;24.220;2023-03-20T08:11:09;98109.91;;;12.12;59.75
55066;BME280;40964;42.114;24.220;2023-03-20T08:13:35;98114.59;;;12.10;59.90
55066;BME280;40964;42.114;24.220;2023-03-20T08:16:01;98109.50;;;12.33;59.33
55066;BME280;40964;42.114;24.220;2023-03-20T08:18:27;98106.69;;;12.28;60.22
55066;BME280;40964;42.114;24.220;2023-03-20T08:20:52;98109.50;;;12.33;59.27
55066;BME280;40964;42.114;24.220;2023-03-20T08:23:18;98104.78;;;12.54;59.14
55066;BME280;40964;42.114;24.220;2023-03-20T08:25:50;98107.03;;;12.87;60.27
55066;BME280;40964;42.114;24.220;2023-03-20T08:28:16;98103.44;;;13.11;56.14
55066;BME280;40964;42.114;24.220;2023-03-20T08:30:42;98102.75;;;13.16;55.00
55066;BME280;40964;42.114;24.220;2023-03-20T08:33:07;98107.44;;;13.32;54.20
55066;BME280;40964;42.114;24.220;2023-03-20T08:35:33;98106.66;;;13.43;58.11
55066;BME280;40964;42.114;24.220;2023-03-20T08:37:59;98102.75;;;13.46;55.66
55066;BME280;40964;42.114;24.220;2023-03-20T08:40:24;98101.38;;;13.43;55.07
55066;BME280;40964;42.114;24.220;2023-03-20T08:42:50;98091.38;;;13.45;55.39
55066;BME280;40964;42.114;24.220;2023-03-20T08:45:15;98083.00;;;13.48;55.28
55066;BME280;40964;42.114;24.220;2023-03-20T08:47:41;98083.53;;;13.39;55.13
55066;BME280;40964;42.114;24.220;2023-03-20T08:50:07;98086.66;;;13.35;55.47
55066;BME280;40964;42.114;24.220;2023-03-20T08:52:33;98072.72;;;13.28;55.53
55066;BME280;40964;42.114;24.220;2023-03-20T08:54:59;98068.72;;;13.26;54.57
55066;BME280;40964;42.114;24.220;2023-03-20T08:57:25;98073.81;;;13.62;56.42
55066;BME280;40964;42.114;24.220;2023-03-20T08:59:50;98074.63;;;13.98;56.86
55066;BME280;40964;42.114;24.220;2023-03-20T09:02:16;98068.63;;;14.14;54.42
55066;BME280;40964;42.114;24.220;2023-03-20T09:04:41;98080.72;;;14.22;55.41
55066;BME280;40964;42.114;24.220;2023-03-20T09:07:07;98071.25;;;14.50;54.04
55066;BME280;40964;42.114;24.220;2023-03-20T09:09:32;98063.81;;;14.63;55.22
55066;BME280;40964;42.114;24.220;2023-03-20T09:11:59;98071.19;;;14.61;54.71
55066;BME280;40964;42.114;24.220;2023-03-20T09:14:26;98068.75;;;14.71;53.45
55066;BME280;40964;42.114;24.220;2023-03-20T09:16:52;98058.50;;;14.75;53.77
55066;BME280;40964;42.114;24.220;2023-03-20T09:19:18;98066.28;;;15.10;54.44
55066;BME280;40964;42.114;24.220;2023-03-20T09:21:44;98070.00;;;15.43;52.72
55066;BME280;40964;42.114;24.220;2023-03-20T09:24:10;98055.47;;;15.62;51.16
55066;BME280;40964;42.114;24.220;2023-03-20T09:26:36;98050.91;;;15.57;50.87
55066;BME280;40964;42.114;24.220;2023-03-20T09:29:03;98058.91;;;15.96;51.76
55066;BME280;40964;42.114;24.220;2023-03-20T09:31:29;98054.28;;;16.08;51.08
55066;BME280;40964;42.114;24.220;2023-03-20T09:33:54;98044.84;;;15.96;48.98
55066;BME280;40964;42.114;24.220;2023-03-20T09:36:20;98050.22;;;16.01;49.27
55066;BME280;40964;42.114;24.220;2023-03-20T09:38:46;98044.88;;;16.39;49.18
55066;BME280;40964;42.114;24.220;2023-03-20T09:41:29;98036.88;;;16.61;48.85
55066;BME280;40964;42.114;24.220;2023-03-20T09:51:59;98016.03;;;16.70;47.27
55066;BME280;40964;42.114;24.220;2023-03-20T09:56:51;98009.53;;;17.15;47.18
55066;BME280;40964;42.114;24.220;2023-03-20T09:59:19;98007.84;;;17.36;47.34
55066;BME280;40964;42.114;24.220;2023-03-20T10:02:15;98006.03;;;17.78;46.13
55066;BME280;40964;42.114;24.220;2023-03-20T10:04:50;97993.66;;;17.25;45.41
55066;BME280;40964;42.114;24.220;2023-03-20T10:07:17;97992.91;;;17.29;46.56
55066;BME280;40964;42.114;24.220;2023-03-20T10:09:43;97987.47;;;17.51;46.53
55066;BME280;40964;42.114;24.220;2023-03-20T10:17:53;97967.22;;;17.82;45.38
55066;BME280;40964;42.114;24.220;2023-03-20T10:20:41;97964.06;;;17.96;44.26
55066;BME280;40964;42.114;24.220;2023-03-20T10:23:21;97963.72;;;17.72;44.21
55066;BME280;40964;42.114;24.220;2023-03-20T10:25:55;97943.88;;;18.00;44.10
55066;BME280;40964;42.114;24.220;2023-03-20T10:29:04;97944.97;;;18.09;43.03
55066;BME280;40964;42.114;24.220;2023-03-20T10:31:55;97940.47;;;18.09;42.84
55066;BME280;40964;42.114;24.220;2023-03-20T10:34:29;97947.44;;;18.31;42.45
55066;BME280;40964;42.114;24.220;2023-03-20T10:42:06;97934.44;;;18.44;40.73
55066;BME280;40964;42.114;24.220;2023-03-20T10:44:40;97930.50;;;18.73;43.17
55066;BME280;40964;42.114;24.220;2023-03-20T10:47:11;97922.50;;;19.03;40.63
55066;BME280;40964;42.114;24.220;2023-03-20T10:50:15;97932.06;;;19.45;39.50
55066;BME280;40964;42.114;24.220;2023-03-20T10:52:35;97919.44;;;19.81;40.11
55066;BME280;40964;42.114;24.220;2023-03-20T10:55:03;97923.22;;;19.70;38.43
55066;BME280;40964;42.114;24.220;2023-03-20T10:57:34;97917.88;;;19.65;37.65
55066;BME280;40964;42.114;24.220;2023-03-20T11:00:04;97909.59;;;19.66;39.92
55066;BME280;40964;42.114;24.220;2023-03-20T11:02:35;97910.63;;;19.80;38.02
55066;BME280;40964;42.114;24.220;2023-03-20T11:05:23;97912.03;;;19.47;39.47
55066;BME280;40964;42.114;24.220;2023-03-20T11:07:51;97912.84;;;19.43;39.85
55066;BME280;40964;42.114;24.220;2023-03-20T11:10:27;97906.97;;;19.46;39.66
55066;BME280;40964;42.114;24.220;2023-03-20T11:12:55;97907.53;;;19.38;38.53
55066;BME280;40964;42.114;24.220;2023-03-20T11:15:26;97900.53;;;19.67;39.97
55066;BME280;40964;42.114;24.220;2023-03-20T11:17:59;97895.75;;;19.69;38.77
55066;BME280;40964;42.114;24.220;2023-03-20T11:20:30;97891.53;;;19.43;39.26
55066;BME280;40964;42.114;24.220;2023-03-20T11:22:58;97884.28;;;19.53;38.17
55066;BME280;40964;42.114;24.220;2023-03-20T11:25:36;97886.22;;;19.22;38.14
55066;BME280;40964;42.114;24.220;2023-03-20T11:33:38;97860.38;;;19.93;40.52
55066;BME280;40964;42.114;24.220;2023-03-20T11:36:29;97862.91;;;20.18;38.08
55066;BME280;40964;42.114;24.220;2023-03-20T11:39:05;97857.69;;;19.98;41.19
55066;BME280;40964;42.114;24.220;2023-03-20T11:41:31;97844.13;;;19.89;39.27
55066;BME280;40964;42.114;24.220;2023-03-20T11:43:57;97852.44;;;19.82;38.85
55066;BME280;40964;42.114;24.220;2023-03-20T11:46:24;97834.84;;;19.76;39.50
55066;BME280;40964;42.114;24.220;2023-03-20T11:49:19;97839.28;;;19.96;39.37
55066;BME280;40964;42.114;24.220;2023-03-20T11:51:45;97836.84;;;20.05;38.09
55066;BME280;40964;42.114;24.220;2023-03-20T11:54:17;97839.88;;;19.88;39.08
55066;BME280;40964;42.114;24.220;2023-03-20T11:56:57;97841.19;;;19.91;38.07
55066;BME280;40964;42.114;24.220;2023-03-20T11:59:31;97829.94;;;19.94;39.15
55066;BME280;40964;42.114;24.220;2023-03-20T12:01:58;97831.13;;;19.72;39.26
55066;BME280;40964;42.114;24.220;2023-03-20T12:04:35;97828.91;;;19.90;38.86
55066;BME280;40964;42.114;24.220;2023-03-20T12:12:16;97825.81;;;20.17;38.38
55066;BME280;40964;42.114;24.220;2023-03-20T12:20:21;97821.34;;;20.02;37.60
55066;BME280;40964;42.114;24.220;2023-03-20T12:23:12;97819.41;;;20.12;37.53
55066;BME280;40964;42.114;24.220;2023-03-20T12:28:39;97810.72;;;20.70;38.80
55066;BME280;40964;42.114;24.220;2023-03-20T12:31:23;97812.50;;;20.80;38.14
55066;BME280;40964;42.114;24.220;2023-03-20T12:34:04;97809.22;;;20.59;36.99
55066;BME280;40964;42.114;24.220;2023-03-20T12:36:44;97805.00;;;20.82;36.54
55066;BME280;40964;42.114;24.220;2023-03-20T12:39:16;97797.16;;;20.90;37.33
55066;BME280;40964;42.114;24.220;2023-03-20T12:49:58;97795.19;;;20.72;37.53
55066;BME280;40964;42.114;24.220;2023-03-20T12:55:36;97786.91;;;20.74;36.06
55066;BME280;40964;42.114;24.220;2023-03-20T13:08:49;97767.69;;;20.72;35.43
55066;BME280;40964;42.114;24.220;2023-03-20T13:14:02;97773.34;;;20.65;35.00
55066;BME280;40964;42.114;24.220;2023-03-20T13:16:51;97764.72;;;20.73;35.72
55066;BME280;40964;42.114;24.220;2023-03-20T13:19:42;97761.50;;;20.76;35.56
55066;BME280;40964;42.114;24.220;2023-03-20T13:22:29;97756.16;;;20.76;35.08
55066;BME280;40964;42.114;24.220;2023-03-20T13:27:48;97752.84;;;20.84;35.80
55066;BME280;40964;42.114;24.220;2023-03-20T13:30:34;97752.63;;;20.81;35.96
55066;BME280;40964;42.114;24.220;2023-03-20T13:36:00;97740.06;;;21.05;34.58
55066;BME280;40964;42.114;24.220;2023-03-20T13:38:41;97740.22;;;20.90;34.54
55066;BME280;40964;42.114;24.220;2023-03-20T13:41:09;97741.59;;;20.87;34.72
55066;BME280;40964;42.114;24.220;2023-03-20T13:43:37;97731.91;;;20.91;35.76
55066;BME280;40964;42.114;24.220;2023-03-20T13:46:17;97733.50;;;20.92;34.87
55066;BME280;40964;42.114;24.220;2023-03-20T13:48:45;97734.09;;;20.89;35.05
55066;BME280;40964;42.114;24.220;2023-03-20T14:01:59;97717.91;;;21.00;34.50
55066;BME280;40964;42.114;24.220;2023-03-20T14:04:27;97720.59;;;21.00;34.95
55066;BME280;40964;42.114;24.220;2023-03-20T14:06:56;97723.91;;;20.91;34.05
55066;BME280;40964;42.114;24.220;2023-03-20T14:12:05;97711.34;;;20.68;33.82
55066;BME280;40964;42.114;24.220;2023-03-20T14:14:39;97706.31;;;20.61;33.64
55066;BME280;40964;42.114;24.220;2023-03-20T14:17:28;97710.13;;;20.55;33.64
55066;BME280;40964;42.114;24.220;2023-03-20T14:19:55;97708.84;;;20.48;34.41
55066;BME280;40964;42.114;24.220;2023-03-20T14:22:28;97705.09;;;20.49;34.03
55066;BME280;40964;42.114;24.220;2023-03-20T14:25:18;97699.91;;;20.33;33.18
55066;BME280;40964;42.114;24.220;2023-03-20T14:28:21;97702.50;;;20.38;34.18
55066;BME280;40964;42.114;24.220;2023-03-20T14:30:48;97691.56;;;20.40;34.40
55066;BME280;40964;42.114;24.220;2023-03-20T14:35:45;97697.22;;;20.33;34.11
55066;BME280;40964;42.114;24.220;2023-03-20T14:38:24;97699.38;;;20.31;34.69
55066;BME280;40964;42.114;24.220;2023-03-20T14:43:59;97699.41;;;20.26;34.71
55066;BME280;40964;42.114;24.220;2023-03-20T14:46:51;97694.66;;;20.23;34.08
55066;BME280;40964;42.114;24.220;2023-03-20T14:49:35;97690.41;;;20.17;34.44
55066;BME280;40964;42.114;24.220;2023-03-20T14:54:51;97702.28;;;20.06;34.99
55066;BME280;40964;42.114;24.220;2023-03-20T14:57:31;97702.97;;;20.17;35.66
55066;BME280;40964;42.114;24.220;2023-03-20T14:59:58;97694.84;;;19.98;34.21
55066;BME280;40964;42.114;24.220;2023-03-20T15:02:27;97691.81;;;19.75;34.31
55066;BME280;40964;42.114;24.220;2023-03-20T15:04:54;97693.75;;;19.70;35.26
55066;BME280;40964;42.114;24.220;2023-03-20T15:07:24;97692.34;;;19.77;35.36
55066;BME280;40964;42.114;24.220;2023-03-20T15:09:54;97690.19;;;19.79;35.01
55066;BME280;40964;42.114;24.220;2023-03-20T15:12:25;97697.00;;;19.62;34.65
55066;BME280;40964;42.114;24.220;2023-03-20T15:17:20;97691.91;;;19.55;35.08
55066;BME280;40964;42.114;24.220;2023-03-20T15:19:45;97691.19;;;19.44;35.44
55066;BME280;40964;42.114;24.220;2023-03-20T15:22:17;97695.47;;;19.40;35.73
55066;BME280;40964;42.114;24.220;2023-03-20T15:24:53;97682.75;;;19.32;36.11
55066;BME280;40964;42.114;24.220;2023-03-20T15:27:20;97692.81;;;19.40;36.37
55066;BME280;40964;42.114;24.220;2023-03-20T15:29:50;97699.16;;;19.49;36.44